createdAt,value
2017-11-24T00:00:33.470Z,0
2017-11-24T00:01:33.442Z,0
2017-11-24T00:02:33.457Z,0
2017-11-24T00:03:33.477Z,0
2017-11-24T00:04:33.484Z,0
2017-11-24T00:05:33.533Z,0
2017-11-24T00:06:33.465Z,0
2017-11-24T00:07:33.499Z,0
2017-11-24T00:08:33.419Z,0
2017-11-24T00:09:33.530Z,0
2017-11-24T00:10:33.544Z,0
2017-11-24T00:11:33.550Z,0
2017-11-24T00:12:33.542Z,0
2017-11-24T00:13:33.483Z,0
2017-11-24T00:14:33.505Z,0
2017-11-24T00:15:33.505Z,0
2017-11-24T00:16:33.483Z,0
2017-11-24T00:17:33.489Z,0
2017-11-24T00:18:33.418Z,0
2017-11-24T00:19:33.441Z,0
2017-11-24T00:20:33.494Z,0
2017-11-24T00:21:33.532Z,0
2017-11-24T00:22:33.464Z,0
2017-11-24T00:23:33.492Z,0
2017-11-24T00:24:33.514Z,0
2017-11-24T00:25:33.555Z,0
2017-11-24T00:26:33.493Z,0
2017-11-24T00:27:33.513Z,0
2017-11-24T00:28:33.515Z,0
2017-11-24T00:29:33.497Z,0
2017-11-24T00:30:33.567Z,0
2017-11-24T00:31:33.502Z,0
2017-11-24T00:32:33.569Z,0
2017-11-24T00:33:33.499Z,0
2017-11-24T00:34:33.569Z,0
2017-11-24T00:35:33.503Z,0
2017-11-24T00:36:33.504Z,0
2017-11-24T00:37:33.570Z,0
2017-11-24T00:38:33.529Z,0
2017-11-24T00:39:33.573Z,0
2017-11-24T00:40:33.570Z,0
2017-11-24T00:41:33.582Z,0
2017-11-24T00:42:33.576Z,0
2017-11-24T00:43:33.509Z,0
2017-11-24T00:44:33.574Z,0
2017-11-24T00:45:33.585Z,0
2017-11-24T00:46:33.514Z,0
2017-11-24T00:47:33.512Z,0
2017-11-24T00:48:33.576Z,0
2017-11-24T00:49:33.584Z,0
2017-11-24T00:50:33.449Z,0
2017-11-24T00:51:33.515Z,0
2017-11-24T00:52:33.472Z,0
2017-11-24T00:53:33.537Z,0
2017-11-24T00:54:33.556Z,0
2017-11-24T00:55:33.443Z,0
2017-11-24T00:56:33.514Z,0
2017-11-24T00:57:33.457Z,0
2017-11-24T00:58:33.569Z,0
2017-11-24T00:59:33.515Z,0
2017-11-24T01:00:33.490Z,0
2017-11-24T01:01:33.471Z,0
2017-11-24T01:02:33.494Z,0
2017-11-24T01:03:33.575Z,0
2017-11-24T01:04:33.573Z,0
2017-11-24T01:05:33.578Z,0
2017-11-24T01:06:33.493Z,0
2017-11-24T01:07:33.456Z,0
2017-11-24T01:08:33.457Z,0
2017-11-24T01:09:33.580Z,0
2017-11-24T01:10:33.556Z,0
2017-11-24T01:11:33.447Z,0
2017-11-24T01:12:33.461Z,0
2017-11-24T01:13:33.538Z,0
2017-11-24T01:14:33.504Z,0
2017-11-24T01:15:33.519Z,0
2017-11-24T01:16:33.577Z,0
2017-11-24T01:17:33.462Z,0
2017-11-24T01:18:33.487Z,0
2017-11-24T01:19:33.574Z,0
2017-11-24T01:20:33.596Z,0
2017-11-24T01:21:33.532Z,0
2017-11-24T01:22:33.598Z,0
2017-11-24T01:23:33.597Z,0
2017-11-24T01:24:33.532Z,0
2017-11-24T01:25:33.599Z,0
2017-11-24T01:26:33.603Z,0
2017-11-24T01:27:33.530Z,0
2017-11-24T01:28:33.605Z,0
2017-11-24T01:29:33.537Z,0
2017-11-24T01:30:33.533Z,0
2017-11-24T01:31:33.603Z,0
2017-11-24T01:32:33.562Z,0
2017-11-24T01:33:33.608Z,0
2017-11-24T01:34:33.543Z,0
2017-11-24T01:35:33.613Z,0
2017-11-24T01:36:33.605Z,0
2017-11-24T01:37:33.540Z,0
2017-11-24T01:38:33.606Z,0
2017-11-24T01:39:33.544Z,0
2017-11-24T01:40:33.478Z,0
2017-11-24T01:41:33.519Z,0
2017-11-24T01:42:33.467Z,0
2017-11-24T01:43:33.503Z,0
2017-11-24T01:44:33.521Z,0
2017-11-24T01:45:33.507Z,0
2017-11-24T01:46:33.472Z,0
2017-11-24T01:47:33.504Z,0
2017-11-24T01:48:33.546Z,0
2017-11-24T01:49:33.470Z,0
2017-11-24T01:50:33.512Z,0
2017-11-24T01:51:33.513Z,0
2017-11-24T01:52:33.627Z,0
2017-11-24T01:53:33.514Z,0
2017-11-24T01:54:33.551Z,0
2017-11-24T01:55:33.466Z,0
2017-11-24T01:56:33.518Z,0
2017-11-24T01:57:33.521Z,0
2017-11-24T01:58:33.469Z,0
2017-11-24T01:59:33.471Z,0
2017-11-24T02:00:33.624Z,0
2017-11-24T02:01:33.556Z,0
2017-11-24T02:02:33.625Z,0
2017-11-24T02:03:33.554Z,0
2017-11-24T02:04:33.624Z,0
2017-11-24T02:05:33.557Z,0
2017-11-24T02:06:33.582Z,0
2017-11-24T02:07:33.625Z,0
2017-11-24T02:08:33.562Z,0
2017-11-24T02:09:33.627Z,0
2017-11-24T02:10:33.559Z,0
2017-11-24T02:11:33.627Z,0
2017-11-24T02:12:33.569Z,0
2017-11-24T02:13:33.562Z,0
2017-11-24T02:14:33.640Z,0
2017-11-24T02:15:33.565Z,0
2017-11-24T02:16:33.630Z,0
2017-11-24T02:17:33.566Z,0
2017-11-24T02:18:33.631Z,0
2017-11-24T02:19:33.633Z,0
2017-11-24T02:20:33.565Z,0
2017-11-24T02:21:33.526Z,0
2017-11-24T02:22:33.569Z,0
2017-11-24T02:23:33.633Z,0
2017-11-24T02:24:33.569Z,0
2017-11-24T02:25:33.638Z,0
2017-11-24T02:26:33.567Z,0
2017-11-24T02:27:33.565Z,0
2017-11-24T02:28:33.647Z,0
2017-11-24T02:29:33.571Z,0
2017-11-24T02:30:33.643Z,0
2017-11-24T02:31:33.578Z,0
2017-11-24T02:32:33.639Z,0
2017-11-24T02:33:33.610Z,0
2017-11-24T02:34:33.647Z,0
2017-11-24T02:35:33.578Z,0
2017-11-24T02:36:33.650Z,0
2017-11-24T02:37:33.599Z,0
2017-11-24T02:38:33.614Z,0
2017-11-24T02:39:33.644Z,0
2017-11-24T02:40:33.598Z,0
2017-11-24T02:41:33.648Z,0
2017-11-24T02:42:33.583Z,0
2017-11-24T02:43:33.648Z,0
2017-11-24T02:44:33.582Z,0
2017-11-24T02:45:33.647Z,0
2017-11-24T02:46:33.586Z,0
2017-11-24T02:47:33.652Z,0
2017-11-24T02:48:33.582Z,0
2017-11-24T02:49:33.587Z,0
2017-11-24T02:50:33.649Z,0
2017-11-24T02:51:33.583Z,0
2017-11-24T02:52:33.655Z,0
2017-11-24T02:53:33.591Z,0
2017-11-24T02:54:33.656Z,0
2017-11-24T02:55:33.585Z,0
2017-11-24T02:56:33.598Z,0
2017-11-24T02:57:33.655Z,0
2017-11-24T02:58:33.588Z,0
2017-11-24T02:59:33.657Z,0
2017-11-24T03:00:33.553Z,0
2017-11-24T03:01:33.554Z,0
2017-11-24T03:02:33.514Z,0
2017-11-24T03:03:33.514Z,0
2017-11-24T03:04:33.555Z,0
2017-11-24T03:05:33.602Z,0
2017-11-24T03:06:33.603Z,0
2017-11-24T03:07:33.606Z,0
2017-11-24T03:08:33.607Z,0
2017-11-24T03:09:33.509Z,0
2017-11-24T03:10:33.651Z,0
2017-11-24T03:11:33.590Z,0
2017-11-24T03:12:33.659Z,0
2017-11-24T03:13:33.545Z,0
2017-11-24T03:14:33.614Z,0
2017-11-24T03:15:33.562Z,0
2017-11-24T03:16:33.648Z,0
2017-11-24T03:17:33.572Z,0
2017-11-24T03:18:33.654Z,0
2017-11-24T03:19:33.617Z,0
2017-11-24T03:20:33.559Z,0
2017-11-24T03:21:33.604Z,0
2017-11-24T03:22:33.687Z,0
2017-11-24T03:23:33.678Z,0
2017-11-24T03:24:33.609Z,0
2017-11-24T03:25:33.674Z,0
2017-11-24T03:26:33.613Z,0
2017-11-24T03:27:33.673Z,0
2017-11-24T03:28:33.609Z,0
2017-11-24T03:29:33.674Z,0
2017-11-24T03:30:33.678Z,0
2017-11-24T03:31:33.602Z,0
2017-11-24T03:32:33.676Z,0
2017-11-24T03:33:33.701Z,0
2017-11-24T03:34:33.612Z,0
2017-11-24T03:35:33.693Z,0
2017-11-24T03:36:33.611Z,0
2017-11-24T03:37:33.679Z,0
2017-11-24T03:38:33.614Z,0
2017-11-24T03:39:33.681Z,0
2017-11-24T03:40:33.877Z,0
2017-11-24T03:41:33.568Z,0
2017-11-24T03:42:33.686Z,0
2017-11-24T03:43:33.624Z,0
2017-11-24T03:44:33.684Z,0
2017-11-24T03:45:33.616Z,0
2017-11-24T03:46:33.684Z,0
2017-11-24T03:47:33.617Z,0
2017-11-24T03:48:33.687Z,0
2017-11-24T03:49:33.619Z,0
2017-11-24T03:50:33.690Z,0
2017-11-24T03:51:33.640Z,0
2017-11-24T03:52:33.647Z,0
2017-11-24T03:53:33.660Z,0
2017-11-24T03:54:33.623Z,0
2017-11-24T03:55:33.719Z,0
2017-11-24T03:56:33.639Z,0
2017-11-24T03:57:33.692Z,0
2017-11-24T03:58:33.628Z,0
2017-11-24T03:59:33.696Z,0
2017-11-24T04:00:33.693Z,0
2017-11-24T04:01:33.555Z,0
2017-11-24T04:02:33.642Z,0
2017-11-24T04:03:33.577Z,0
2017-11-24T04:04:33.684Z,0
2017-11-24T04:05:33.579Z,0
2017-11-24T04:06:33.679Z,0
2017-11-24T04:07:33.712Z,0
2017-11-24T04:08:33.671Z,0
2017-11-24T04:09:33.643Z,0
2017-11-24T04:10:33.632Z,0
2017-11-24T04:11:33.700Z,0
2017-11-24T04:12:33.656Z,0
2017-11-24T04:13:33.699Z,0
2017-11-24T04:14:33.640Z,0
2017-11-24T04:15:33.706Z,0
2017-11-24T04:16:33.643Z,0
2017-11-24T04:17:33.707Z,0
2017-11-24T04:18:33.704Z,0
2017-11-24T04:19:33.683Z,0
2017-11-24T04:20:33.690Z,0
2017-11-24T04:21:33.569Z,0
2017-11-24T04:22:33.615Z,0
2017-11-24T04:23:33.609Z,0
2017-11-24T04:24:33.609Z,0
2017-11-24T04:25:33.655Z,0
2017-11-24T04:26:33.613Z,0
2017-11-24T04:27:33.594Z,0
2017-11-24T04:28:33.611Z,0
2017-11-24T04:29:33.698Z,0
2017-11-24T04:30:33.641Z,0
2017-11-24T04:31:33.711Z,0
2017-11-24T04:32:33.641Z,0
2017-11-24T04:33:33.646Z,0
2017-11-24T04:34:33.713Z,0
2017-11-24T04:35:33.648Z,0
2017-11-24T04:36:33.714Z,0
2017-11-24T04:37:33.677Z,0
2017-11-24T04:38:33.596Z,0
2017-11-24T04:39:33.654Z,0
2017-11-24T04:40:33.715Z,0
2017-11-24T04:41:33.585Z,0
2017-11-24T04:42:33.647Z,0
2017-11-24T04:43:33.649Z,0
2017-11-24T04:44:33.719Z,0
2017-11-24T04:45:33.703Z,0
2017-11-24T04:46:33.653Z,0
2017-11-24T04:47:33.590Z,0
2017-11-24T04:48:33.650Z,0
2017-11-24T04:49:33.653Z,0
2017-11-24T04:50:33.657Z,0
2017-11-24T04:51:33.660Z,0
2017-11-24T04:52:33.727Z,0
2017-11-24T04:53:33.659Z,0
2017-11-24T04:54:33.664Z,0
2017-11-24T04:55:33.662Z,0
2017-11-24T04:56:33.728Z,0
2017-11-24T04:57:33.726Z,0
2017-11-24T04:58:33.663Z,0
2017-11-24T04:59:33.728Z,0
2017-11-24T05:00:33.681Z,0
2017-11-24T05:01:33.596Z,0
2017-11-24T05:02:33.592Z,0
2017-11-24T05:03:33.637Z,0
2017-11-24T05:04:33.593Z,0
2017-11-24T05:05:33.678Z,0
2017-11-24T05:06:33.685Z,0
2017-11-24T05:07:33.690Z,0
2017-11-24T05:08:33.661Z,0
2017-11-24T05:09:33.597Z,0
2017-11-24T05:10:33.672Z,0
2017-11-24T05:11:33.738Z,0
2017-11-24T05:12:33.668Z,0
2017-11-24T05:13:33.738Z,0
2017-11-24T05:14:33.738Z,0
2017-11-24T05:15:33.676Z,0
2017-11-24T05:16:33.739Z,0
2017-11-24T05:17:33.674Z,0
2017-11-24T05:18:33.705Z,0
2017-11-24T05:19:33.674Z,0
2017-11-24T05:20:33.711Z,0
2017-11-24T05:21:33.704Z,0
2017-11-24T05:22:33.646Z,0
2017-11-24T05:23:33.607Z,0
2017-11-24T05:24:33.673Z,0
2017-11-24T05:25:33.624Z,0
2017-11-24T05:26:33.732Z,0
2017-11-24T05:27:33.696Z,0
2017-11-24T05:28:33.651Z,0
2017-11-24T05:29:33.733Z,0
2017-11-24T05:30:33.682Z,0
2017-11-24T05:31:33.747Z,0
2017-11-24T05:32:33.684Z,0
2017-11-24T05:33:33.748Z,0
2017-11-24T05:34:33.751Z,0
2017-11-24T05:35:33.683Z,0
2017-11-24T05:36:33.750Z,0
2017-11-24T05:37:33.706Z,0
2017-11-24T05:38:33.685Z,0
2017-11-24T05:39:33.755Z,0
2017-11-24T05:40:33.739Z,0
2017-11-24T05:41:33.621Z,0
2017-11-24T05:42:33.741Z,0
2017-11-24T05:43:33.746Z,0
2017-11-24T05:44:33.641Z,0
2017-11-24T05:45:33.738Z,0
2017-11-24T05:46:33.743Z,0
2017-11-24T05:47:33.743Z,0
2017-11-24T05:48:33.660Z,0
2017-11-24T05:49:33.685Z,0
2017-11-24T05:50:33.757Z,0
2017-11-24T05:51:33.666Z,0
2017-11-24T05:52:33.663Z,0
2017-11-24T05:53:33.702Z,0
2017-11-24T05:54:33.666Z,0
2017-11-24T05:55:33.738Z,0
2017-11-24T05:56:33.694Z,0
2017-11-24T05:57:33.669Z,0
2017-11-24T05:58:33.668Z,0
2017-11-24T05:59:33.720Z,0
2017-11-24T06:00:33.636Z,0
2017-11-24T06:01:33.635Z,0
2017-11-24T06:02:33.637Z,0
2017-11-24T06:03:33.622Z,0
2017-11-24T06:04:33.653Z,0
2017-11-24T06:05:33.668Z,0
2017-11-24T06:06:33.731Z,0
2017-11-24T06:07:33.729Z,0
2017-11-24T06:08:33.707Z,0
2017-11-24T06:09:33.660Z,0
2017-11-24T06:10:33.699Z,0
2017-11-24T06:11:33.773Z,0
2017-11-24T06:12:33.701Z,0
2017-11-24T06:13:33.773Z,0
2017-11-24T06:14:33.705Z,0
2017-11-24T06:15:33.774Z,0
2017-11-24T06:16:33.775Z,0
2017-11-24T06:17:33.708Z,0
2017-11-24T06:18:33.708Z,0
2017-11-24T06:19:33.774Z,0
2017-11-24T06:20:33.708Z,0
2017-11-24T06:21:33.776Z,0
2017-11-24T06:22:33.779Z,0
2017-11-24T06:23:33.786Z,0
2017-11-24T06:24:33.803Z,0
2017-11-24T06:25:33.713Z,0
2017-11-24T06:26:33.691Z,0
2017-11-24T06:27:33.786Z,0
2017-11-24T06:28:33.716Z,0
2017-11-24T06:29:33.782Z,0
2017-11-24T06:30:33.716Z,0
2017-11-24T06:31:33.783Z,0
2017-11-24T06:32:33.718Z,0
2017-11-24T06:33:33.786Z,0
2017-11-24T06:34:33.718Z,0
2017-11-24T06:35:33.715Z,0
2017-11-24T06:36:33.789Z,0
2017-11-24T06:37:33.786Z,0
2017-11-24T06:38:33.734Z,0
2017-11-24T06:39:33.788Z,0
2017-11-24T06:40:33.719Z,0
2017-11-24T06:41:33.790Z,0
2017-11-24T06:42:33.729Z,0
2017-11-24T06:43:33.789Z,0
2017-11-24T06:44:33.724Z,0
2017-11-24T06:45:33.791Z,0
2017-11-24T06:46:33.734Z,0
2017-11-24T06:47:33.747Z,0
2017-11-24T06:48:33.793Z,0
2017-11-24T06:49:33.727Z,0
2017-11-24T06:50:33.799Z,0
2017-11-24T06:51:33.709Z,0
2017-11-24T06:52:33.676Z,0
2017-11-24T06:53:33.662Z,0
2017-11-24T06:54:33.759Z,0
2017-11-24T06:55:33.724Z,0
2017-11-24T06:56:33.679Z,0
2017-11-24T06:57:33.766Z,0
2017-11-24T06:58:33.702Z,0
2017-11-24T06:59:33.698Z,0
2017-11-24T07:00:33.767Z,0
2017-11-24T07:01:33.664Z,0
2017-11-24T07:02:33.683Z,0
2017-11-24T07:03:33.681Z,0
2017-11-24T07:04:33.788Z,0
2017-11-24T07:05:33.733Z,0
2017-11-24T07:06:33.702Z,0
2017-11-24T07:07:33.705Z,0
2017-11-24T07:08:33.744Z,0
2017-11-24T07:09:33.709Z,0
2017-11-24T07:10:33.800Z,0
2017-11-24T07:11:33.773Z,0
2017-11-24T07:12:33.796Z,0
2017-11-24T07:13:33.670Z,0
2017-11-24T07:14:33.794Z,0
2017-11-24T07:15:33.714Z,0
2017-11-24T07:16:33.710Z,0
2017-11-24T07:17:33.715Z,0
2017-11-24T07:18:33.693Z,0
2017-11-24T07:19:33.793Z,0
2017-11-24T07:20:33.718Z,0
2017-11-24T07:21:33.811Z,0
2017-11-24T07:22:33.745Z,0
2017-11-24T07:23:33.816Z,0
2017-11-24T07:24:33.745Z,0
2017-11-24T07:25:33.814Z,0
2017-11-24T07:26:33.755Z,0
2017-11-24T07:27:33.817Z,0
2017-11-24T07:28:33.759Z,0
2017-11-24T07:29:33.817Z,0
2017-11-24T07:30:33.819Z,0
2017-11-24T07:31:33.677Z,0
2017-11-24T07:32:33.706Z,0
2017-11-24T07:33:33.708Z,0
2017-11-24T07:34:33.708Z,0
2017-11-24T07:35:33.744Z,0
2017-11-24T07:36:33.783Z,0
2017-11-24T07:37:33.783Z,0
2017-11-24T07:38:33.732Z,0
2017-11-24T07:39:33.684Z,0
2017-11-24T07:40:33.807Z,0
2017-11-24T07:41:33.719Z,0
2017-11-24T07:42:33.807Z,0
2017-11-24T07:43:33.757Z,0
2017-11-24T07:44:33.788Z,0
2017-11-24T07:45:33.783Z,0
2017-11-24T07:46:33.779Z,0
2017-11-24T07:47:33.777Z,0
2017-11-24T07:48:33.757Z,0
2017-11-24T07:49:33.719Z,0
2017-11-24T07:50:33.699Z,0
2017-11-24T07:51:33.831Z,0
2017-11-24T07:52:33.764Z,0
2017-11-24T07:53:33.833Z,0
2017-11-24T07:54:33.766Z,0
2017-11-24T07:55:33.835Z,0
2017-11-24T07:56:33.770Z,0
2017-11-24T07:57:33.772Z,0
2017-11-24T07:58:33.836Z,0
2017-11-24T07:59:33.766Z,0
2017-11-24T08:00:33.841Z,0
2017-11-24T08:01:33.768Z,0
2017-11-24T08:02:33.839Z,0
2017-11-24T08:03:33.774Z,0
2017-11-24T08:04:33.840Z,0
2017-11-24T08:05:33.793Z,0
2017-11-24T08:06:33.841Z,0
2017-11-24T08:07:33.776Z,0
2017-11-24T08:08:33.848Z,0
2017-11-24T08:09:33.777Z,0
2017-11-24T08:10:33.775Z,0
2017-11-24T08:11:33.733Z,0
2017-11-24T08:12:33.824Z,0
2017-11-24T08:13:33.698Z,0
2017-11-24T08:14:33.709Z,0
2017-11-24T08:15:33.710Z,0
2017-11-24T08:16:33.758Z,0
2017-11-24T08:17:33.775Z,0
2017-11-24T08:18:33.704Z,0
2017-11-24T08:19:33.809Z,0
2017-11-24T08:20:33.702Z,0
2017-11-24T08:21:33.852Z,0
2017-11-24T08:22:33.805Z,0
2017-11-24T08:23:33.849Z,0
2017-11-24T08:24:33.787Z,0
2017-11-24T08:25:33.784Z,0
2017-11-24T08:26:33.781Z,0
2017-11-24T08:27:33.852Z,0
2017-11-24T08:28:33.783Z,0
2017-11-24T08:29:33.854Z,0
2017-11-24T08:30:33.754Z,0
2017-11-24T08:31:33.826Z,0
2017-11-24T08:32:33.761Z,0
2017-11-24T08:33:33.764Z,0
2017-11-24T08:34:33.762Z,0
2017-11-24T08:35:33.847Z,0
2017-11-24T08:36:33.787Z,0
2017-11-24T08:37:33.787Z,0
2017-11-24T08:38:33.810Z,0
2017-11-24T08:39:33.767Z,0
2017-11-24T08:40:33.858Z,0
2017-11-24T08:41:33.847Z,0
2017-11-24T08:42:33.829Z,0
2017-11-24T08:43:33.761Z,0
2017-11-24T08:44:33.862Z,0
2017-11-24T08:45:33.830Z,0
2017-11-24T08:46:33.808Z,15
2017-11-24T08:47:33.762Z,14
2017-11-24T08:48:33.811Z,15
2017-11-24T08:49:33.744Z,16
2017-11-24T08:50:33.862Z,14
2017-11-24T08:51:33.801Z,16
2017-11-24T08:52:33.867Z,16
2017-11-24T08:53:33.823Z,16
2017-11-24T08:54:33.869Z,20
2017-11-24T08:55:33.799Z,19
2017-11-24T08:56:33.874Z,13
2017-11-24T08:57:33.800Z,11
2017-11-24T08:58:33.871Z,13
2017-11-24T08:59:33.802Z,12
2017-11-24T09:00:33.873Z,14
2017-11-24T09:01:33.804Z,12
2017-11-24T09:02:33.875Z,8
2017-11-24T09:03:33.808Z,9
2017-11-24T09:04:33.873Z,10
2017-11-24T09:05:33.810Z,13
2017-11-24T09:06:33.874Z,10
2017-11-24T09:07:33.813Z,5
2017-11-24T09:08:33.879Z,0
2017-11-24T09:09:33.807Z,0
2017-11-24T09:10:33.878Z,0
2017-11-24T09:11:33.851Z,0
2017-11-24T09:12:33.828Z,0
2017-11-24T09:13:33.808Z,0
2017-11-24T09:14:33.828Z,0
2017-11-24T09:15:33.913Z,0
2017-11-24T09:16:33.794Z,0
2017-11-24T09:17:33.762Z,0
2017-11-24T09:18:33.885Z,0
2017-11-24T09:19:33.850Z,0
2017-11-24T09:20:33.767Z,0
2017-11-24T09:21:33.871Z,0
2017-11-24T09:22:34.086Z,0
2017-11-24T09:23:33.765Z,0
2017-11-24T09:24:33.885Z,0
2017-11-24T09:25:33.869Z,0
2017-11-24T09:26:33.856Z,0
2017-11-24T09:27:33.877Z,0
2017-11-24T09:28:33.793Z,0
2017-11-24T09:29:33.889Z,0
2017-11-24T09:30:33.947Z,0
2017-11-24T09:31:33.836Z,0
2017-11-24T09:32:33.802Z,0
2017-11-24T09:33:33.844Z,0
2017-11-24T09:34:33.852Z,0
2017-11-24T09:35:33.855Z,0
2017-11-24T09:36:33.870Z,0
2017-11-24T09:37:33.804Z,0
2017-11-24T09:38:33.869Z,0
2017-11-24T09:39:33.752Z,0
2017-11-24T09:40:33.820Z,0
2017-11-24T09:41:33.832Z,0
2017-11-24T09:42:33.899Z,0
2017-11-24T09:43:33.832Z,0
2017-11-24T09:44:33.901Z,0
2017-11-24T09:45:33.842Z,0
2017-11-24T09:46:33.906Z,0
2017-11-24T09:47:33.833Z,0
2017-11-24T09:48:33.903Z,0
2017-11-24T09:49:33.834Z,0
2017-11-24T09:50:33.833Z,15
2017-11-24T09:51:33.774Z,16
2017-11-24T09:52:33.811Z,17
2017-11-24T09:53:33.809Z,19
2017-11-24T09:54:33.827Z,19
2017-11-24T09:55:33.771Z,20
2017-11-24T09:56:33.719Z,24
2017-11-24T09:57:33.774Z,24
2017-11-24T09:58:33.838Z,21
2017-11-24T09:59:33.728Z,20
2017-11-24T10:00:33.737Z,22
2017-11-24T10:01:33.908Z,23
2017-11-24T10:02:33.845Z,24
2017-11-24T10:03:33.916Z,28
2017-11-24T10:04:33.841Z,27
2017-11-24T10:05:33.912Z,28
2017-11-24T10:06:33.850Z,30
2017-11-24T10:07:33.866Z,30
2017-11-24T10:08:33.911Z,30
2017-11-24T10:09:33.847Z,34
2017-11-24T10:10:33.915Z,39
2017-11-24T10:11:33.843Z,47
2017-11-24T10:12:33.917Z,49
2017-11-24T10:13:33.843Z,45
2017-11-24T10:14:33.917Z,42
2017-11-24T10:15:33.842Z,38
2017-11-24T10:16:33.952Z,40
2017-11-24T10:17:33.918Z,47
2017-11-24T10:18:33.879Z,63
2017-11-24T10:19:33.921Z,75
2017-11-24T10:20:33.920Z,68
2017-11-24T10:21:33.852Z,61
2017-11-24T10:22:33.926Z,60
2017-11-24T10:23:33.855Z,60
2017-11-24T10:24:33.924Z,56
2017-11-24T10:25:33.855Z,51
2017-11-24T10:26:33.858Z,50
2017-11-24T10:27:33.860Z,50
2017-11-24T10:28:33.925Z,45
2017-11-24T10:29:33.927Z,40
2017-11-24T10:30:33.856Z,36
2017-11-24T10:31:33.956Z,37
2017-11-24T10:32:33.861Z,46
2017-11-24T10:34:33.858Z,74
2017-11-24T10:35:33.930Z,85
2017-11-24T10:36:33.895Z,85
2017-11-24T10:37:33.931Z,85
2017-11-24T10:38:33.859Z,87
2017-11-24T10:39:33.865Z,85
2017-11-24T10:40:33.934Z,86
2017-11-24T10:41:33.837Z,82
2017-11-24T10:42:33.845Z,84
2017-11-24T10:43:33.934Z,92
2017-11-24T10:44:33.879Z,83
2017-11-24T10:45:33.836Z,75
2017-11-24T10:46:33.840Z,74
2017-11-24T10:47:33.936Z,73
2017-11-24T10:48:33.866Z,62
2017-11-24T10:49:33.892Z,43
2017-11-24T10:50:33.883Z,34
2017-11-24T10:51:33.862Z,40
2017-11-24T10:52:33.894Z,62
2017-11-24T10:53:33.835Z,93
2017-11-24T10:54:33.884Z,123
2017-11-24T10:55:33.886Z,136
2017-11-24T10:56:33.827Z,133
2017-11-24T10:57:33.871Z,116
2017-11-24T10:58:33.910Z,99
2017-11-24T10:59:33.906Z,89
2017-11-24T11:00:33.851Z,89
2017-11-24T11:01:33.830Z,80
2017-11-24T11:02:33.831Z,69
2017-11-24T11:03:33.833Z,66
2017-11-24T11:04:33.911Z,69
2017-11-24T11:05:33.923Z,67
2017-11-24T11:06:33.901Z,67
2017-11-24T11:07:33.876Z,64
2017-11-24T11:08:33.836Z,57
2017-11-24T11:09:33.929Z,49
2017-11-24T11:10:33.835Z,43
2017-11-24T11:11:33.860Z,35
2017-11-24T11:12:33.824Z,29
2017-11-24T11:13:33.858Z,27
2017-11-24T11:14:33.824Z,29
2017-11-24T11:15:33.851Z,37
2017-11-24T11:16:33.895Z,46
2017-11-24T11:17:33.896Z,52
2017-11-24T11:18:33.983Z,60
2017-11-24T11:19:33.854Z,69
2017-11-24T11:20:33.866Z,61
2017-11-24T11:21:33.888Z,50
2017-11-24T11:22:33.957Z,43
2017-11-24T11:23:33.886Z,35
2017-11-24T11:24:33.853Z,31
2017-11-24T11:25:33.923Z,29
2017-11-24T11:26:33.960Z,28
2017-11-24T11:27:33.889Z,26
2017-11-24T11:28:33.963Z,24
2017-11-24T11:29:33.962Z,21
2017-11-24T11:30:33.970Z,22
2017-11-24T11:31:33.850Z,28
2017-11-24T11:32:33.812Z,37
2017-11-24T11:33:33.814Z,42
2017-11-24T11:34:33.818Z,43
2017-11-24T11:35:33.913Z,45
2017-11-24T11:36:33.817Z,42
2017-11-24T11:37:33.910Z,29
2017-11-24T11:38:33.863Z,19
2017-11-24T11:39:33.863Z,20
2017-11-24T11:40:33.915Z,26
2017-11-24T11:41:33.869Z,31
2017-11-24T11:42:33.935Z,38
2017-11-24T11:43:33.936Z,43
2017-11-24T11:44:33.874Z,47
2017-11-24T11:45:33.956Z,38
2017-11-24T11:46:33.851Z,25
2017-11-24T11:47:33.851Z,19
2017-11-24T11:48:33.883Z,20
2017-11-24T11:49:33.874Z,25
2017-11-24T11:50:33.886Z,29
2017-11-24T11:51:33.868Z,35
2017-11-24T11:52:33.928Z,39
2017-11-24T11:53:33.915Z,35
2017-11-24T11:54:33.807Z,31
2017-11-24T11:55:33.826Z,24
2017-11-24T11:56:33.856Z,15
2017-11-24T11:57:33.805Z,11
2017-11-24T11:58:33.867Z,8
2017-11-24T11:59:33.865Z,8
2017-11-24T12:00:33.927Z,8
2017-11-24T12:01:33.994Z,9
2017-11-24T12:02:33.991Z,10
2017-11-24T12:03:33.912Z,10
2017-11-24T12:04:33.985Z,12
2017-11-24T12:05:33.983Z,12
2017-11-24T12:06:33.917Z,13
2017-11-24T12:07:33.987Z,14
2017-11-24T12:08:33.914Z,14
2017-11-24T12:09:33.988Z,13
2017-11-24T12:10:33.921Z,12
2017-11-24T12:11:33.987Z,13
2017-11-24T12:12:33.926Z,17
2017-11-24T12:13:33.988Z,21
2017-11-24T12:14:33.989Z,25
2017-11-24T12:15:33.917Z,31
2017-11-24T12:16:33.989Z,34
2017-11-24T12:17:33.923Z,31
2017-11-24T12:18:33.991Z,24
2017-11-24T12:19:33.919Z,21
2017-11-24T12:20:33.990Z,21
2017-11-24T12:21:33.887Z,14
2017-11-24T12:22:33.903Z,15
2017-11-24T12:23:33.873Z,18
2017-11-24T12:24:33.990Z,19
2017-11-24T12:25:33.871Z,19
2017-11-24T12:26:33.936Z,20
2017-11-24T12:27:33.991Z,20
2017-11-24T12:28:33.967Z,12
2017-11-24T12:29:33.998Z,7
2017-11-24T12:30:33.964Z,8
2017-11-24T12:31:33.908Z,11
2017-11-24T12:32:33.995Z,10
2017-11-24T12:33:33.881Z,10
2017-11-24T12:34:33.997Z,13
2017-11-24T12:35:33.942Z,14
2017-11-24T12:36:33.909Z,15
2017-11-24T12:37:33.930Z,23
2017-11-24T12:38:33.906Z,36
2017-11-24T12:39:34.001Z,45
2017-11-24T12:40:33.971Z,49
2017-11-24T12:41:33.910Z,53
2017-11-24T12:42:33.946Z,61
2017-11-24T12:43:33.958Z,75
2017-11-24T12:44:33.899Z,88
2017-11-24T12:45:33.904Z,92
2017-11-24T12:46:33.901Z,86
2017-11-24T12:47:33.906Z,83
2017-11-24T12:48:33.859Z,75
2017-11-24T12:49:33.843Z,57
2017-11-24T12:50:33.865Z,51
2017-11-24T12:51:33.857Z,56
2017-11-24T12:52:34.011Z,56
2017-11-24T12:53:33.944Z,60
2017-11-24T12:54:34.013Z,77
2017-11-24T12:55:33.948Z,98
2017-11-24T12:56:34.020Z,114
2017-11-24T12:57:33.941Z,127
2017-11-24T12:58:34.015Z,112
2017-11-24T12:59:34.037Z,104
2017-11-24T13:00:33.944Z,95
2017-11-24T13:01:34.017Z,71
2017-11-24T13:02:33.994Z,52
2017-11-24T13:03:33.945Z,42
2017-11-24T13:04:33.879Z,41
2017-11-24T13:05:33.978Z,40
2017-11-24T13:06:33.907Z,39
2017-11-24T13:07:33.998Z,50
2017-11-24T13:08:33.951Z,53
2017-11-24T13:09:33.937Z,49
2017-11-24T13:10:34.002Z,43
2017-11-24T13:11:33.983Z,42
2017-11-24T13:12:33.956Z,44
2017-11-24T13:13:34.026Z,45
2017-11-24T13:14:33.960Z,50
2017-11-24T13:15:34.027Z,53
2017-11-24T13:16:33.990Z,52
2017-11-24T13:17:33.957Z,48
2017-11-24T13:18:34.029Z,50
2017-11-24T13:19:34.030Z,57
2017-11-24T13:20:33.963Z,59
2017-11-24T13:21:34.029Z,56
2017-11-24T13:22:33.964Z,54
2017-11-24T13:23:34.032Z,51
2017-11-24T13:24:33.962Z,46
2017-11-24T13:25:34.033Z,40
2017-11-24T13:26:33.987Z,44
2017-11-24T13:27:34.035Z,46
2017-11-24T13:28:34.044Z,43
2017-11-24T13:29:34.028Z,42
2017-11-24T13:30:34.037Z,47
2017-11-24T13:31:33.968Z,60
2017-11-24T13:32:33.926Z,66
2017-11-24T13:33:33.985Z,66
2017-11-24T13:34:34.038Z,63
2017-11-24T13:35:33.971Z,59
2017-11-24T13:36:34.041Z,52
2017-11-24T13:37:33.976Z,44
2017-11-24T13:38:33.925Z,35
2017-11-24T13:39:33.981Z,30
2017-11-24T13:40:34.042Z,24
2017-11-24T13:41:33.973Z,22
2017-11-24T13:42:33.946Z,24
2017-11-24T13:43:33.928Z,25
2017-11-24T13:44:33.924Z,28
2017-11-24T13:45:34.031Z,25
2017-11-24T13:46:34.035Z,27
2017-11-24T13:47:33.932Z,34
2017-11-24T13:48:33.951Z,33
2017-11-24T13:49:33.978Z,23
2017-11-24T13:50:33.995Z,15
2017-11-24T13:51:33.990Z,11
2017-11-24T13:52:33.930Z,9
2017-11-24T13:53:33.972Z,9
2017-11-24T13:54:34.049Z,9
2017-11-24T13:55:34.036Z,6
2017-11-24T13:56:33.993Z,4
2017-11-24T13:57:33.955Z,4
2017-11-24T13:58:33.974Z,5
2017-11-24T13:59:34.023Z,0
2017-11-24T14:00:33.977Z,0
2017-11-24T14:01:33.958Z,0
2017-11-24T14:02:33.985Z,0
2017-11-24T14:03:34.057Z,25
2017-11-24T14:04:33.989Z,35
2017-11-24T14:05:34.070Z,37
2017-11-24T14:06:33.988Z,42
2017-11-24T14:07:34.064Z,39
2017-11-24T14:08:33.986Z,36
2017-11-24T14:09:34.076Z,30
2017-11-24T14:10:33.992Z,33
2017-11-24T14:11:34.060Z,28
2017-11-24T14:12:34.025Z,24
2017-11-24T14:13:33.947Z,23
2017-11-24T14:14:34.023Z,21
2017-11-24T14:15:33.919Z,17
2017-11-24T14:16:34.010Z,17
2017-11-24T14:17:34.048Z,16
2017-11-24T14:18:33.952Z,15
2017-11-24T14:19:33.971Z,13
2017-11-24T14:20:34.054Z,10
2017-11-24T14:21:33.925Z,8
2017-11-24T14:22:34.017Z,6
2017-11-24T14:23:34.053Z,6
2017-11-24T14:24:33.950Z,5
2017-11-24T14:25:34.052Z,5
2017-11-24T14:26:33.956Z,4
2017-11-24T14:27:33.937Z,0
2017-11-24T14:28:34.000Z,0
2017-11-24T14:29:34.020Z,0
2017-11-24T14:30:33.959Z,0
2017-11-24T14:31:33.938Z,0
2017-11-24T14:32:33.996Z,0
2017-11-24T14:33:33.996Z,0
2017-11-24T14:34:33.978Z,0
2017-11-24T14:35:34.071Z,0
2017-11-24T14:36:34.026Z,0
2017-11-24T14:37:34.045Z,0